Time;durP1;ratioP1;P1;durP2;ratioP2;P2;SDS_P1;SDS_P2;PMS_P1;PMS_P2;Temp;Humidity;BMP_temperature;BMP_pressure;BME280_temperature;BME280_humidity;BME280_pressure;Samples;Min_cycle;Max_cycle;Signal;HPM_P1;HPM_P2
2021/12/03 00:01:25;;;;;;;57.20;35.58;;;18.40;93.60;;;;;;4163578;28;20041;-65
2021/12/03 00:03:30;;;;;;;56.67;35.97;;;18.30;93.80;;;;;;4163015;28;20033;-65
2021/12/03 00:05:34;;;;;;;52.25;34.00;;;18.40;93.90;;;;;;4163090;28;20042;-65
2021/12/03 00:07:41;;;;;;;59.25;34.13;;;18.40;93.70;;;;;;4164083;28;20132;-65
2021/12/03 00:09:46;;;;;;;48.35;33.97;;;18.30;93.80;;;;;;4162544;28;20104;-65
2021/12/03 00:11:50;;;;;;;54.15;34.42;;;18.40;93.60;;;;;;4163896;28;20403;-64
2021/12/03 00:13:55;;;;;;;54.50;35.47;;;18.50;93.60;;;;;;4164832;28;20049;-65
2021/12/03 00:15:59;;;;;;;51.72;35.05;;;18.50;93.30;;;;;;4162247;28;20061;-64
2021/12/03 00:18:04;;;;;;;55.58;36.63;;;18.60;93.10;;;;;;4163898;28;20496;-65
2021/12/03 00:20:11;;;;;;;54.22;36.13;;;18.50;93.20;;;;;;4162244;28;20045;-64
2021/12/03 00:22:15;;;;;;;62.75;35.85;;;18.50;93.40;;;;;;4162173;28;20033;-65
2021/12/03 00:24:19;;;;;;;46.50;33.83;;;18.60;93.20;;;;;;4161556;28;20057;-65
2021/12/03 00:26:24;;;;;;;54.20;35.28;;;18.60;93.00;;;;;;4162098;28;20522;-65
2021/12/03 00:28:29;;;;;;;56.92;36.67;;;18.80;92.70;;;;;;4163382;28;20049;-65
2021/12/03 00:30:35;;;;;;;52.88;35.95;;;18.90;92.60;;;;;;4162157;28;20038;-65
2021/12/03 00:32:40;;;;;;;52.35;34.80;;;18.70;93.20;;;;;;4160779;28;20463;-66
2021/12/03 00:34:44;;;;;;;54.95;35.20;;;18.80;92.90;;;;;;4163291;28;20572;-65
2021/12/03 00:36:50;;;;;;;50.42;33.38;;;18.80;92.80;;;;;;4162671;28;20049;-65
2021/12/03 00:38:58;;;;;;;48.50;32.85;;;18.90;92.70;;;;;;4163299;28;20137;-65
2021/12/03 00:41:05;;;;;;;46.17;32.85;;;18.90;92.50;;;;;;4161077;28;20072;-65
2021/12/03 00:43:10;;;;;;;50.78;34.30;;;19.00;92.40;;;;;;4161543;28;20041;-66
2021/12/03 00:45:14;;;;;;;46.67;32.03;;;19.10;92.20;;;;;;4162891;28;20073;-65
2021/12/03 00:47:19;;;;;;;48.25;31.25;;;19.10;92.30;;;;;;4162828;28;20480;-65
2021/12/03 00:49:23;;;;;;;45.17;30.10;;;19.10;92.30;;;;;;4161174;28;20459;-64
2021/12/03 00:51:28;;;;;;;41.90;28.48;;;18.90;92.20;;;;;;4162581;28;20049;-64
2021/12/03 00:53:33;;;;;;;44.30;30.35;;;18.90;91.70;;;;;;4162355;28;20037;-65
2021/12/03 00:55:37;;;;;;;47.78;30.83;;;19.00;92.30;;;;;;4161717;28;20049;-65
2021/12/03 00:57:41;;;;;;;43.47;29.90;;;19.10;92.50;;;;;;4177328;28;20045;-64
2021/12/03 00:59:46;;;;;;;42.45;29.58;;;19.20;91.80;;;;;;4161831;28;20069;-65
2021/12/03 01:01:50;;;;;;;50.78;30.33;;;19.00;92.00;;;;;;4162105;28;20140;-65
2021/12/03 01:03:55;;;;;;;42.33;30.10;;;19.10;91.90;;;;;;4162539;28;20431;-65
2021/12/03 01:05:59;;;;;;;44.20;30.05;;;19.10;91.80;;;;;;4161815;28;20281;-65
2021/12/03 01:08:04;;;;;;;41.72;29.58;;;19.20;91.80;;;;;;4159747;28;20047;-65
2021/12/03 01:10:09;;;;;;;43.60;30.00;;;19.30;91.80;;;;;;4162669;28;20056;-65
2021/12/03 01:12:13;;;;;;;52.33;31.30;;;19.30;91.40;;;;;;4162021;28;20056;-65
2021/12/03 01:14:18;;;;;;;46.97;27.63;;;19.20;91.60;;;;;;4164282;28;20043;-65
2021/12/03 01:16:22;;;;;;;36.50;23.38;;;19.20;90.80;;;;;;4159408;28;20077;-65
2021/12/03 01:18:27;;;;;;;39.28;24.77;;;19.20;90.60;;;;;;4162070;28;20678;-66
2021/12/03 01:20:31;;;;;;;36.65;24.58;;;19.30;90.70;;;;;;4161983;28;20404;-66
2021/12/03 01:22:35;;;;;;;39.15;23.58;;;19.40;90.50;;;;;;4161739;28;20045;-67
2021/12/03 01:24:40;;;;;;;37.00;22.65;;;19.60;90.10;;;;;;4161576;28;20049;-66
2021/12/03 01:26:45;;;;;;;36.53;22.10;;;19.50;88.10;;;;;;4160070;28;20095;-66
2021/12/03 01:28:49;;;;;;;38.55;23.58;;;19.50;88.60;;;;;;4161673;28;20053;-66
2021/12/03 01:30:55;;;;;;;32.53;21.55;;;19.70;88.40;;;;;;4160834;28;20069;-66
2021/12/03 01:33:00;;;;;;;27.88;18.33;;;19.70;87.30;;;;;;4160757;28;20057;-66
2021/12/03 01:35:05;;;;;;;29.60;19.65;;;19.60;85.30;;;;;;4159924;28;20092;-66
2021/12/03 01:37:10;;;;;;;31.85;19.30;;;19.70;85.30;;;;;;4161682;28;20575;-66
2021/12/03 01:39:15;;;;;;;31.92;20.13;;;19.70;84.40;;;;;;4161116;28;20045;-66
2021/12/03 01:41:19;;;;;;;28.40;19.67;;;19.80;83.80;;;;;;4161280;28;20446;-65
2021/12/03 01:43:27;;;;;;;31.13;18.77;;;20.00;84.10;;;;;;4160216;28;20434;-65
2021/12/03 01:45:33;;;;;;;35.15;19.77;;;20.10;83.40;;;;;;4161037;28;20453;-66
2021/12/03 01:47:39;;;;;;;28.08;18.02;;;20.20;83.40;;;;;;4159486;28;20060;-65
2021/12/03 01:49:44;;;;;;;34.00;19.08;;;20.20;81.70;;;;;;4159309;28;20049;-66
2021/12/03 01:51:49;;;;;;;32.45;17.65;;;20.20;81.90;;;;;;4160409;28;20131;-66
2021/12/03 01:53:53;;;;;;;26.02;17.52;;;20.30;81.70;;;;;;4160839;28;20045;-66
2021/12/03 01:56:09;;;;;;;30.13;17.05;;;20.30;81.10;;;;;;4161334;28;20065;-65
2021/12/03 01:58:14;;;;;;;23.80;14.77;;;20.30;79.20;;;;;;4161112;28;20049;-65
2021/12/03 02:00:24;;;;;;;28.77;15.52;;;20.30;79.30;;;;;;4160906;28;20513;-65
2021/12/03 02:02:29;;;;;;;23.02;15.13;;;20.30;78.20;;;;;;4160133;28;20046;-66
2021/12/03 02:04:34;;;;;;;24.90;13.77;;;20.40;78.40;;;;;;4160196;28;20037;-66
2021/12/03 02:06:39;;;;;;;18.88;12.52;;;20.40;77.30;;;;;;4160880;28;20041;-65
2021/12/03 02:08:43;;;;;;;21.98;12.50;;;20.50;76.00;;;;;;4161324;28;20037;-65
2021/12/03 02:10:48;;;;;;;20.50;12.60;;;20.60;75.90;;;;;;4159186;28;20045;-66
2021/12/03 02:12:52;;;;;;;18.75;11.75;;;20.60;75.50;;;;;;4161351;28;20060;-66
2021/12/03 02:14:56;;;;;;;23.35;12.23;;;20.60;75.00;;;;;;4160750;28;20049;-66
2021/12/03 02:17:01;;;;;;;23.15;12.27;;;20.70;74.30;;;;;;4160383;28;20056;-66
2021/12/03 02:19:06;;;;;;;22.10;11.73;;;20.80;74.40;;;;;;4161219;28;20057;-65
2021/12/03 02:21:10;;;;;;;21.45;13.00;;;20.80;73.40;;;;;;4159685;28;20062;-65
2021/12/03 02:23:15;;;;;;;25.45;11.93;;;20.90;74.10;;;;;;4159883;28;20033;-65
2021/12/03 02:25:21;;;;;;;19.45;11.43;;;21.00;73.90;;;;;;4161272;28;20037;-66
2021/12/03 02:27:25;;;;;;;27.80;11.63;;;21.00;72.80;;;;;;4160694;28;20095;-66
2021/12/03 02:29:30;;;;;;;24.58;12.10;;;21.10;73.20;;;;;;4159346;28;20111;-67
2021/12/03 02:31:34;;;;;;;17.35;10.82;;;21.10;73.20;;;;;;4160626;28;20053;-66
2021/12/03 02:33:39;;;;;;;24.90;10.95;;;21.20;72.20;;;;;;4161143;28;20052;-66
2021/12/03 02:35:44;;;;;;;23.88;11.13;;;21.30;70.10;;;;;;4159584;28;20115;-66
2021/12/03 02:37:50;;;;;;;22.30;10.40;;;21.20;69.40;;;;;;4159622;28;20622;-65
2021/12/03 02:39:54;;;;;;;18.80;9.85;;;21.30;69.30;;;;;;4160585;28;20037;-66
2021/12/03 02:41:58;;;;;;;18.02;9.68;;;21.40;68.80;;;;;;4160816;28;20506;-65
2021/12/03 02:44:03;;;;;;;22.48;9.90;;;21.40;67.90;;;;;;4160856;28;20053;-66
2021/12/03 02:46:07;;;;;;;17.90;8.95;;;21.50;67.80;;;;;;4159239;28;20129;-66
2021/12/03 02:48:12;;;;;;;39.53;10.63;;;21.50;66.20;;;;;;4160708;28;20463;-65
2021/12/03 02:50:18;;;;;;;22.13;9.95;;;21.50;67.60;;;;;;4161013;28;20069;-66
2021/12/03 02:52:22;;;;;;;18.65;9.38;;;21.60;66.70;;;;;;4160855;28;20041;-65
2021/12/03 02:54:26;;;;;;;14.25;8.95;;;21.70;64.70;;;;;;4160807;28;20049;-67
2021/12/03 02:56:31;;;;;;;21.83;9.80;;;21.70;64.90;;;;;;4160372;28;20127;-67
2021/12/03 02:58:35;;;;;;;16.40;9.93;;;21.80;65.80;;;;;;4160643;28;20134;-67
2021/12/03 03:00:40;;;;;;;14.85;9.23;;;21.90;65.80;;;;;;4160812;28;20076;-68
2021/12/03 03:02:44;;;;;;;17.85;8.10;;;21.90;64.80;;;;;;4157441;28;20044;-68
2021/12/03 03:04:49;;;;;;;17.73;8.88;;;21.90;63.90;;;;;;4159662;28;20497;-67
2021/12/03 03:06:54;;;;;;;14.05;8.55;;;22.00;62.30;;;;;;4159352;28;20579;-67
2021/12/03 03:08:58;;;;;;;20.60;8.70;;;22.00;63.30;;;;;;4160837;28;20073;-68
2021/12/03 03:11:06;;;;;;;30.38;9.63;;;22.00;63.10;;;;;;4158299;28;20128;-68
2021/12/03 03:13:11;;;;;;;13.40;8.45;;;22.10;63.40;;;;;;4160454;28;20057;-68
2021/12/03 03:15:16;;;;;;;16.17;9.05;;;22.10;63.40;;;;;;4159873;28;20049;-68
2021/12/03 03:17:23;;;;;;;17.50;8.55;;;22.20;62.50;;;;;;4158837;28;20085;-68
2021/12/03 03:19:27;;;;;;;13.32;7.80;;;22.20;61.40;;;;;;4160050;28;20091;-68
2021/12/03 03:21:31;;;;;;;14.05;8.27;;;22.20;62.30;;;;;;4158567;28;20053;-68
2021/12/03 03:23:36;;;;;;;14.73;8.73;;;22.30;62.40;;;;;;4159934;28;20116;-68
2021/12/03 03:25:41;;;;;;;16.33;8.95;;;22.40;62.40;;;;;;4159987;28;20033;-68
2021/12/03 03:27:46;;;;;;;17.55;9.40;;;22.40;61.90;;;;;;4159165;28;20407;-68
2021/12/03 03:29:51;;;;;;;16.58;9.93;;;22.50;62.40;;;;;;4159432;28;20092;-68
2021/12/03 03:31:55;;;;;;;15.73;9.25;;;22.50;61.70;;;;;;4157265;28;20145;-68
2021/12/03 03:34:00;;;;;;;18.70;11.30;;;22.50;62.30;;;;;;4158238;28;20165;-68
2021/12/03 03:36:05;;;;;;;21.23;11.07;;;22.50;61.60;;;;;;4159754;28;20501;-67
2021/12/03 03:38:09;;;;;;;22.00;11.23;;;22.60;61.60;;;;;;4157774;28;20057;-67
2021/12/03 03:40:13;;;;;;;25.90;10.50;;;22.60;61.90;;;;;;4159401;28;20038;-67
2021/12/03 03:42:20;;;;;;;16.67;9.57;;;22.70;61.70;;;;;;4160110;28;20107;-67
2021/12/03 03:44:26;;;;;;;17.25;10.15;;;22.70;61.70;;;;;;4160125;28;20088;-67
2021/12/03 03:46:30;;;;;;;18.42;9.73;;;22.80;61.80;;;;;;4159159;28;20053;-68
2021/12/03 03:48:35;;;;;;;17.02;9.43;;;22.80;61.90;;;;;;4161725;28;20506;-67
2021/12/03 03:50:40;;;;;;;16.35;10.25;;;22.80;61.50;;;;;;4162672;28;20132;-67
2021/12/03 03:52:44;;;;;;;19.77;10.18;;;22.90;61.70;;;;;;4163122;28;20184;-67
2021/12/03 03:54:51;;;;;;;22.00;10.30;;;22.90;61.80;;;;;;4161084;28;20376;-66
2021/12/03 03:56:55;;;;;;;20.55;9.43;;;23.00;61.20;;;;;;4161692;28;20049;-67
2021/12/03 03:59:00;;;;;;;22.83;9.82;;;23.00;60.10;;;;;;4158706;28;20061;-67
2021/12/03 04:01:05;;;;;;;20.55;10.15;;;23.00;61.20;;;;;;4162900;28;20053;-67
2021/12/03 04:03:10;;;;;;;19.27;9.63;;;23.10;61.00;;;;;;4162753;28;20049;-66
2021/12/03 04:05:14;;;;;;;20.00;8.05;;;23.20;60.90;;;;;;4163012;28;20132;-66
2021/12/03 04:07:19;;;;;;;22.13;9.05;;;23.10;60.20;;;;;;4162733;28;20041;-67
2021/12/03 04:09:24;;;;;;;17.25;9.77;;;23.20;59.70;;;;;;4161828;28;20072;-67
2021/12/03 04:11:28;;;;;;;20.83;8.93;;;23.20;60.80;;;;;;4162421;28;20084;-67
2021/12/03 04:13:32;;;;;;;22.50;9.02;;;23.30;60.10;;;;;;4162295;28;20171;-69
2021/12/03 04:15:37;;;;;;;14.55;8.77;;;23.30;60.00;;;;;;4162755;28;20041;-67
2021/12/03 04:17:42;;;;;;;21.65;10.32;;;23.30;59.80;;;;;;4162599;28;20057;-66
2021/12/03 04:19:46;;;;;;;20.40;9.85;;;23.40;59.80;;;;;;4162699;28;20131;-67
2021/12/03 04:21:50;;;;;;;33.28;10.82;;;23.50;60.60;;;;;;4160556;28;20057;-66
2021/12/03 04:23:55;;;;;;;17.17;9.00;;;23.50;60.50;;;;;;4162077;28;20261;-66
2021/12/03 04:26:00;;;;;;;22.85;9.93;;;23.50;59.80;;;;;;4160955;28;20562;-66
2021/12/03 04:28:05;;;;;;;15.48;8.77;;;23.60;59.80;;;;;;4165988;28;20072;-66
2021/12/03 04:30:12;;;;;;;15.65;9.00;;;23.70;58.90;;;;;;4161147;28;20064;-66
2021/12/03 04:32:19;;;;;;;17.98;8.27;;;23.70;58.40;;;;;;4160863;28;20053;-66
2021/12/03 04:34:24;;;;;;;12.45;7.50;;;23.60;58.20;;;;;;4161324;28;20037;-66
2021/12/03 04:36:29;;;;;;;17.75;8.38;;;23.70;57.70;;;;;;4161055;28;20091;-66
2021/12/03 04:38:33;;;;;;;16.67;8.20;;;23.70;58.00;;;;;;4161060;28;20514;-66
2021/12/03 04:40:38;;;;;;;17.00;7.18;;;23.70;57.50;;;;;;4161465;28;20119;-66
2021/12/03 04:42:42;;;;;;;23.05;14.13;;;23.70;57.10;;;;;;4159914;28;20045;-66
2021/12/03 04:44:47;;;;;;;25.38;13.30;;;23.90;57.30;;;;;;4157027;28;20622;-67
2021/12/03 04:46:51;;;;;;;22.10;14.80;;;23.80;56.90;;;;;;4157162;28;20054;-67
2021/12/03 04:48:55;;;;;;;21.73;9.95;;;23.90;56.00;;;;;;4160579;28;20037;-67
2021/12/03 04:51:00;;;;;;;16.90;8.57;;;23.90;55.70;;;;;;4157617;28;20450;-67
2021/12/03 04:53:04;;;;;;;17.27;8.13;;;23.90;55.40;;;;;;4160135;28;20140;-67
2021/12/03 04:55:10;;;;;;;19.60;8.95;;;23.90;55.40;;;;;;4160382;28;20582;-67
2021/12/03 04:57:15;;;;;;;18.15;7.97;;;24.00;56.40;;;;;;4159861;28;20099;-67
2021/12/03 04:59:19;;;;;;;18.10;7.93;;;24.00;56.20;;;;;;4157579;28;20507;-67
2021/12/03 05:01:23;;;;;;;20.70;7.95;;;24.10;56.50;;;;;;4160133;28;20384;-67
2021/12/03 05:03:29;;;;;;;12.55;7.95;;;24.20;55.90;;;;;;4157338;28;20512;-67
2021/12/03 05:05:34;;;;;;;18.27;8.23;;;24.30;55.20;;;;;;4159993;28;20418;-67
2021/12/03 05:09:43;;;;;;;17.00;7.90;;;24.20;55.00;;;;;;4159346;28;20051;-68
2021/12/03 05:11:47;;;;;;;13.55;8.02;;;24.20;55.90;;;;;;4159466;28;20581;-67
2021/12/03 05:13:52;;;;;;;14.23;7.53;;;24.30;55.40;;;;;;4158427;28;20414;-68
2021/12/03 05:15:57;;;;;;;16.30;7.60;;;24.30;55.60;;;;;;4159188;28;20053;-68
2021/12/03 05:18:02;;;;;;;18.92;8.02;;;24.30;55.50;;;;;;4158053;28;20073;-68
2021/12/03 05:20:06;;;;;;;15.02;7.10;;;24.40;55.70;;;;;;4159202;28;20057;-67
2021/12/03 05:22:13;;;;;;;14.18;8.13;;;24.30;56.10;;;;;;4158543;28;20518;-68
2021/12/03 05:24:17;;;;;;;17.73;7.35;;;24.40;56.90;;;;;;4156728;28;20045;-68
2021/12/03 05:26:22;;;;;;;17.45;7.40;;;24.40;56.40;;;;;;4157977;28;20472;-68
2021/12/03 05:28:27;;;;;;;16.92;7.90;;;24.50;54.90;;;;;;4158970;28;20042;-68
2021/12/03 05:30:32;;;;;;;10.73;6.80;;;24.60;54.60;;;;;;4157128;28;20318;-68
2021/12/03 05:32:36;;;;;;;14.18;7.68;;;24.60;54.70;;;;;;4157353;28;20491;-68
2021/12/03 05:34:41;;;;;;;11.68;6.78;;;24.60;54.50;;;;;;4157715;28;20444;-68
2021/12/03 05:36:46;;;;;;;13.90;7.18;;;24.60;54.50;;;;;;4158824;28;20431;-69
2021/12/03 05:38:50;;;;;;;14.90;7.45;;;24.60;54.20;;;;;;4158140;28;20080;-68
2021/12/03 05:41:08;;;;;;;14.27;7.40;;;24.60;53.60;;;;;;4157625;28;20049;-68
2021/12/03 05:43:12;;;;;;;18.02;8.23;;;24.70;53.60;;;;;;4158504;28;20041;-68
2021/12/03 05:45:20;;;;;;;15.50;7.20;;;24.70;52.30;;;;;;4158322;28;20416;-68
2021/12/03 05:47:25;;;;;;;15.90;6.93;;;24.70;52.90;;;;;;4156932;28;20435;-68
2021/12/03 05:49:30;;;;;;;13.57;6.70;;;24.70;52.80;;;;;;4158286;28;20375;-68
2021/12/03 05:51:34;;;;;;;13.95;7.25;;;24.70;51.60;;;;;;4158491;28;20049;-68
2021/12/03 05:53:39;;;;;;;12.85;7.07;;;24.80;52.30;;;;;;4153845;28;20160;-68
2021/12/03 05:55:43;;;;;;;15.35;7.13;;;24.80;51.70;;;;;;4158926;28;20107;-68
2021/12/03 05:57:48;;;;;;;11.18;6.57;;;24.80;51.80;;;;;;4161020;28;20111;-68
2021/12/03 05:59:55;;;;;;;13.68;6.80;;;24.80;52.10;;;;;;4158727;28;20053;-68
2021/12/03 06:01:59;;;;;;;14.68;6.40;;;24.90;51.60;;;;;;4156005;28;20064;-68
2021/12/03 06:04:04;;;;;;;12.77;6.43;;;24.80;51.60;;;;;;4158409;28;20049;-68
2021/12/03 06:06:09;;;;;;;12.68;6.85;;;24.90;50.80;;;;;;4157931;28;20400;-68
2021/12/03 06:08:13;;;;;;;13.43;6.63;;;24.90;51.70;;;;;;4157856;28;20033;-67
2021/12/03 06:10:18;;;;;;;17.30;7.20;;;25.00;51.50;;;;;;4157252;28;20045;-67
2021/12/03 06:12:23;;;;;;;14.73;6.20;;;24.90;51.20;;;;;;4158616;28;20045;-69
2021/12/03 06:14:29;;;;;;;14.60;6.43;;;25.00;50.90;;;;;;4158523;28;20045;-68
2021/12/03 06:16:34;;;;;;;13.00;5.63;;;24.90;50.60;;;;;;4159108;28;20050;-68
2021/12/03 06:18:38;;;;;;;16.08;7.55;;;24.90;50.00;;;;;;4156329;28;20041;-68
2021/12/03 06:20:43;;;;;;;12.02;5.68;;;24.90;49.40;;;;;;4156968;28;20049;-68
2021/12/03 06:22:47;;;;;;;13.93;6.40;;;25.00;49.60;;;;;;4158956;28;20049;-68
2021/12/03 06:24:53;;;;;;;19.17;5.68;;;25.10;49.10;;;;;;4157705;28;20053;-68
2021/12/03 06:26:57;;;;;;;9.15;5.82;;;25.10;49.90;;;;;;4158013;28;20057;-69
2021/12/03 06:29:02;;;;;;;10.57;5.80;;;25.10;49.70;;;;;;4156327;28;20053;-69
2021/12/03 06:31:08;;;;;;;15.55;6.43;;;25.10;49.60;;;;;;4156779;28;20049;-68
2021/12/03 06:33:13;;;;;;;15.25;5.57;;;25.10;49.70;;;;;;4158620;28;20137;-69
2021/12/03 06:35:17;;;;;;;13.70;5.68;;;25.10;49.00;;;;;;4157101;28;20143;-68
2021/12/03 06:37:22;;;;;;;12.18;6.47;;;25.10;49.30;;;;;;4156069;28;20584;-68
2021/12/03 06:39:26;;;;;;;12.55;6.18;;;25.10;48.50;;;;;;4158424;28;20083;-68
2021/12/03 06:41:30;;;;;;;10.77;6.55;;;25.20;49.00;;;;;;4158473;28;20051;-69
2021/12/03 06:43:36;;;;;;;14.63;6.38;;;25.20;49.20;;;;;;4158223;28;20425;-69
2021/12/03 06:45:40;;;;;;;19.15;6.03;;;25.30;49.10;;;;;;4155958;28;20044;-69
2021/12/03 06:47:44;;;;;;;17.38;6.55;;;25.20;47.00;;;;;;4158039;28;20045;-68
2021/12/03 06:49:55;;;;;;;12.52;5.80;;;25.30;48.30;;;;;;4157154;28;20490;-68
2021/12/03 06:52:05;;;;;;;13.88;6.20;;;25.40;47.90;;;;;;4154843;28;20073;-68
2021/12/03 06:54:11;;;;;;;13.15;5.60;;;25.40;48.10;;;;;;4158500;28;20084;-68
2021/12/03 06:56:21;;;;;;;15.75;5.47;;;25.30;48.40;;;;;;4158254;28;20072;-67
2021/12/03 06:58:26;;;;;;;9.27;5.97;;;25.30;49.50;;;;;;4157479;28;20125;-68
2021/12/03 07:00:30;;;;;;;13.40;6.07;;;25.40;49.00;;;;;;4158534;28;20041;-68
2021/12/03 07:02:35;;;;;;;10.65;5.57;;;25.50;48.80;;;;;;4158537;28;20125;-68
2021/12/03 07:04:40;;;;;;;11.52;5.45;;;25.40;48.90;;;;;;4156674;28;20041;-68
2021/12/03 07:06:46;;;;;;;17.35;6.20;;;25.40;48.60;;;;;;4158948;28;20045;-68
2021/12/03 07:08:50;;;;;;;13.32;6.00;;;25.40;49.10;;;;;;4159479;28;20144;-68
2021/12/03 07:10:55;;;;;;;14.13;6.90;;;25.40;48.40;;;;;;4159641;28;20292;-68
2021/12/03 07:12:59;;;;;;;14.52;6.50;;;25.50;48.00;;;;;;4159572;28;20049;-68
2021/12/03 07:15:05;;;;;;;14.43;6.10;;;25.40;47.90;;;;;;4159343;28;20080;-68
2021/12/03 07:17:09;;;;;;;11.73;6.30;;;25.40;48.40;;;;;;4159168;28;20565;-68
2021/12/03 07:19:14;;;;;;;12.48;5.68;;;25.50;48.60;;;;;;4159752;28;20055;-68
2021/12/03 07:21:19;;;;;;;125.20;9.90;;;25.50;48.80;;;;;;4160940;28;20510;-68
2021/12/03 07:23:23;;;;;;;50.22;8.60;;;25.50;48.80;;;;;;4162418;28;20038;-67
2021/12/03 07:25:28;;;;;;;19.98;5.97;;;25.50;48.70;;;;;;4163193;28;20045;-68
2021/12/03 07:27:33;;;;;;;11.77;5.80;;;25.50;48.70;;;;;;4172740;28;20057;-66
2021/12/03 07:29:37;;;;;;;13.40;5.80;;;25.50;48.50;;;;;;4162025;28;20055;-67
2021/12/03 07:31:42;;;;;;;15.43;6.53;;;25.50;49.20;;;;;;4164516;28;20057;-67
2021/12/03 07:33:47;;;;;;;11.32;5.95;;;25.50;49.40;;;;;;4164570;28;20053;-67
2021/12/03 07:35:51;;;;;;;10.38;5.47;;;25.50;49.60;;;;;;4164800;28;20263;-68
2021/12/03 07:37:56;;;;;;;12.63;6.30;;;25.50;49.70;;;;;;4163961;28;20069;-67
2021/12/03 07:40:04;;;;;;;10.40;5.28;;;25.60;49.80;;;;;;4160879;28;20045;-67
2021/12/03 07:42:08;;;;;;;13.80;5.80;;;25.60;49.10;;;;;;4163315;28;20049;-67
2021/12/03 07:44:13;;;;;;;11.52;5.70;;;25.60;49.30;;;;;;4161041;28;20096;-67
2021/12/03 07:46:17;;;;;;;9.82;6.18;;;25.60;49.60;;;;;;4164272;28;20037;-67
2021/12/03 07:48:23;;;;;;;16.95;6.32;;;25.60;48.90;;;;;;4163749;28;20058;-68
2021/12/03 07:50:27;;;;;;;11.65;5.53;;;25.60;49.20;;;;;;4163428;28;20060;-67
2021/12/03 07:52:33;;;;;;;16.67;5.47;;;25.70;49.70;;;;;;4163988;28;20041;-67
2021/12/03 07:54:38;;;;;;;11.75;5.97;;;25.60;49.10;;;;;;4164332;28;20053;-68
2021/12/03 07:56:42;;;;;;;13.57;5.60;;;25.60;48.00;;;;;;4167583;28;20095;-67
2021/12/03 07:58:46;;;;;;;13.38;5.68;;;25.60;47.80;;;;;;4179243;28;20057;-67
2021/12/03 08:00:51;;;;;;;12.02;5.55;;;25.60;48.00;;;;;;4180669;28;20384;-67
2021/12/03 08:02:55;;;;;;;10.85;5.50;;;25.60;48.10;;;;;;4180761;28;20156;-68
2021/12/03 08:05:00;;;;;;;13.98;5.65;;;25.60;48.00;;;;;;4165271;28;20046;-67
2021/12/03 08:07:04;;;;;;;9.10;5.88;;;25.70;48.40;;;;;;4164006;28;20045;-67
2021/12/03 08:09:09;;;;;;;15.57;5.93;;;25.70;47.60;;;;;;4164024;28;20053;-67
2021/12/03 08:11:13;;;;;;;11.90;5.55;;;25.70;46.70;;;;;;4163949;28;20562;-67
2021/12/03 08:13:18;;;;;;;11.07;5.57;;;25.70;46.30;;;;;;4164339;28;20053;-67
2021/12/03 08:15:22;;;;;;;10.48;5.20;;;25.70;45.50;;;;;;4163966;28;20124;-67
2021/12/03 08:17:27;;;;;;;10.43;5.45;;;25.70;45.90;;;;;;4164147;28;20049;-68
2021/12/03 08:19:31;;;;;;;15.07;5.90;;;25.70;46.60;;;;;;4163630;28;20057;-67
2021/12/03 08:21:35;;;;;;;9.65;5.20;;;25.70;46.50;;;;;;4163935;28;20041;-68
2021/12/03 08:23:40;;;;;;;11.65;5.45;;;25.80;46.20;;;;;;4163957;28;20072;-67
2021/12/03 08:25:44;;;;;;;13.80;5.40;;;25.70;45.00;;;;;;4163676;28;20075;-67
2021/12/03 08:27:49;;;;;;;16.48;6.18;;;25.70;45.10;;;;;;4163585;28;20058;-67
2021/12/03 08:29:53;;;;;;;12.02;5.30;;;25.70;44.80;;;;;;4163475;28;20404;-67
2021/12/03 08:31:57;;;;;;;18.80;5.70;;;25.70;44.00;;;;;;4163608;28;20041;-68
2021/12/03 08:34:02;;;;;;;10.63;5.18;;;25.70;44.40;;;;;;4163163;28;20053;-67
2021/12/03 08:36:06;;;;;;;12.85;5.60;;;25.70;43.90;;;;;;4163198;28;20136;-68
2021/12/03 08:38:11;;;;;;;14.15;6.30;;;25.70;44.70;;;;;;4162248;28;20052;-68
2021/12/03 08:40:35;;;;;;;15.77;5.70;;;25.80;44.70;;;;;;4162891;28;20053;-68
2021/12/03 08:42:40;;;;;;;12.00;5.70;;;25.80;45.70;;;;;;4161421;28;20037;-68
2021/12/03 08:44:45;;;;;;;12.98;5.82;;;25.70;45.40;;;;;;4162527;28;20064;-68
2021/12/03 08:46:57;;;;;;;10.02;5.57;;;25.70;45.20;;;;;;4160443;28;20049;-69
2021/12/03 08:51:52;;;;;;;11.02;5.35;;;25.70;44.10;;;;;;4161897;28;20040;-67
2021/12/03 08:56:13;;;;;;;10.93;4.90;;;25.70;44.10;;;;;;4160744;28;20145;-67
2021/12/03 08:58:19;;;;;;;13.82;5.40;;;25.70;44.20;;;;;;4163820;28;20495;-67
2021/12/03 09:00:24;;;;;;;14.48;5.70;;;25.70;42.20;;;;;;4162694;28;20076;-67
2021/12/03 09:02:28;;;;;;;10.90;4.97;;;25.70;42.90;;;;;;4163082;28;20519;-67
2021/12/03 09:04:33;;;;;;;18.45;5.38;;;25.70;42.70;;;;;;4162972;28;20048;-67
2021/12/03 09:06:37;;;;;;;11.98;5.05;;;25.60;43.00;;;;;;4161376;28;20464;-67
2021/12/03 09:08:42;;;;;;;16.27;5.50;;;25.70;43.30;;;;;;4160828;28;20129;-67
2021/12/03 09:10:47;;;;;;;14.02;5.35;;;25.70;43.70;;;;;;4161942;28;20048;-67
2021/12/03 09:12:52;;;;;;;12.55;5.03;;;25.60;43.30;;;;;;4161022;28;20052;-67
2021/12/03 09:15:00;;;;;;;15.07;5.40;;;25.70;43.30;;;;;;4161791;28;20044;-67
2021/12/03 09:19:33;;;;;;;9.43;5.13;;;25.70;44.00;;;;;;4143652;28;20084;-66
2021/12/03 09:21:38;;;;;;;14.35;5.20;;;25.70;43.20;;;;;;4159007;28;20049;-67
2021/12/03 09:26:03;;;;;;;9.38;5.22;;;25.70;43.90;;;;;;4158327;28;20069;-67
2021/12/03 09:28:12;;;;;;;12.82;6.45;;;25.60;44.30;;;;;;4158148;28;20073;-68
2021/12/03 09:30:17;;;;;;;14.60;5.88;;;25.70;44.40;;;;;;4159349;28;20061;-67
2021/12/03 09:32:24;;;;;;;12.93;6.50;;;25.60;43.40;;;;;;4159488;28;20102;-68
2021/12/03 09:34:32;;;;;;;9.88;5.43;;;25.60;44.00;;;;;;4158303;28;20543;-67
2021/12/03 09:36:40;;;;;;;16.70;7.38;;;25.60;44.80;;;;;;4159021;28;20053;-67
2021/12/03 09:38:44;;;;;;;16.13;7.78;;;25.60;45.50;;;;;;4157505;28;20079;-68
2021/12/03 09:40:49;;;;;;;22.10;8.48;;;25.60;45.40;;;;;;4159360;28;20064;-68
2021/12/03 09:42:53;;;;;;;13.27;6.88;;;25.60;44.90;;;;;;4159117;28;20408;-67
2021/12/03 09:44:58;;;;;;;10.57;6.65;;;25.50;45.40;;;;;;4158623;28;20057;-67
2021/12/03 09:47:02;;;;;;;13.55;7.07;;;25.50;45.50;;;;;;4160568;28;20037;-67
2021/12/03 09:51:12;;;;;;;12.63;8.02;;;25.50;46.60;;;;;;4141606;28;20505;-67
2021/12/03 09:55:22;;;;;;;17.00;9.52;;;25.50;47.20;;;;;;4159586;28;20547;-68
2021/12/03 09:57:36;;;;;;;18.45;9.10;;;25.50;47.00;;;;;;4160298;28;20048;-67
2021/12/03 10:00:04;;;;;;;18.92;8.63;;;25.40;46.90;;;;;;4160667;28;20094;-67
2021/12/03 10:25:03;;;;;;;20.88;10.63;;;25.00;50.00;;;;;;4157231;28;20037;-68
2021/12/03 10:42:55;;;;;;;31.85;14.70;;;24.70;53.00;;;;;;4156892;28;20049;-67
2021/12/03 10:45:29;;;;;;;28.92;13.93;;;24.70;53.30;;;;;;4157075;28;20195;-68
2021/12/03 10:50:08;;;;;;;27.90;12.77;;;24.60;54.20;;;;;;4161835;28;20053;-68
2021/12/03 10:56:49;;;;;;;33.67;16.02;;;24.50;55.10;;;;;;4161422;28;20114;-68
2021/12/03 11:18:06;;;;;;;30.42;19.38;;;24.10;55.70;;;;;;4158627;28;20452;-68
2021/12/03 11:25:36;;;;;;;45.17;24.45;;;24.00;55.10;;;;;;4159680;28;20058;-67
2021/12/03 12:59:33;;;;;;;36.90;17.52;;;22.80;58.50;;;;;;4161324;28;20049;-69
2021/12/03 13:01:34;;;;;;;31.42;16.15;;;22.70;58.40;;;;;;4160725;28;20041;-69
2021/12/03 13:15:21;;;;;;;35.05;15.45;;;22.60;59.30;;;;;;4163335;28;20053;-68
2021/12/03 13:26:57;;;;;;;28.60;17.05;;;22.70;60.80;;;;;;4148927;28;20053;-68
2021/12/03 13:29:53;;;;;;;35.75;16.23;;;22.60;61.00;;;;;;4146827;28;20333;-68
2021/12/03 13:44:26;;;;;;;35.03;16.73;;;22.40;62.30;;;;;;4156116;28;20479;-68
2021/12/03 14:55:55;;;;;;;46.60;22.77;;;21.50;70.70;;;;;;4155592;28;20057;-67
2021/12/03 14:58:03;;;;;;;;;;;21.50;70.70;;;;;;4153230;28;20288;-67
2021/12/03 15:07:17;;;;;;;37.25;21.17;;;21.30;70.80;;;;;;4147577;28;20048;-67
2021/12/03 15:09:28;;;;;;;37.88;22.02;;;21.30;70.80;;;;;;4157820;28;20415;-67
2021/12/03 15:33:58;;;;;;;38.50;21.95;;;21.00;71.50;;;;;;4158821;28;20561;-67
2021/12/03 15:36:06;;;;;;;41.45;23.40;;;21.00;71.80;;;;;;4155431;28;20056;-66
2021/12/03 16:19:07;;;;;;;47.50;24.90;;;20.60;73.80;;;;;;4162141;28;20443;-67
2021/12/03 16:52:50;;;;;;;46.15;23.65;;;20.30;77.20;;;;;;4161084;28;20132;-68
2021/12/03 16:54:56;;;;;;;38.60;22.42;;;20.40;77.10;;;;;;4158998;28;20091;-68
2021/12/03 16:57:01;;;;;;;39.78;23.10;;;20.40;77.00;;;;;;4148969;28;20056;-67
2021/12/03 16:59:05;;;;;;;44.47;23.27;;;20.30;77.40;;;;;;4161451;28;20056;-68
2021/12/03 17:03:34;;;;;;;41.92;22.85;;;20.30;77.70;;;;;;4160578;28;20511;-68
2021/12/03 17:15:01;;;;;;;37.85;21.60;;;20.20;78.40;;;;;;4160214;28;20562;-68
2021/12/03 17:46:30;;;;;;;36.22;21.20;;;20.00;78.90;;;;;;4133945;28;20054;-68